Time;durP1;ratioP1;P1;durP2;ratioP2;P2;SDS_P1;SDS_P2;PMS_P1;PMS_P2;Temp;Humidity;BMP_temperature;BMP_pressure;BME280_temperature;BME280_humidity;BME280_pressure;Samples;Min_cycle;Max_cycle;Signal;HPM_P1;HPM_P2
2023/06/10 01:03:07;;;;;;;;;;;;;;;;;;2197951;23;19925;-74
2023/06/10 01:04:28;;;;;;;;;;;;;;;;;;2011318;29;19923;-75
2023/06/10 01:05:49;;;;;;;;;;;;;;;;;;2016863;29;19908;-75
2023/06/10 01:07:09;;;;;;;;;;;;;;;;;;2001804;29;19925;-74
2023/06/10 01:08:30;;;;;;;;;;;;;;;;;;2005800;29;20264;-75
2023/06/10 01:09:51;;;;;;;;;;;;;;;;;;2016391;29;19907;-75
2023/06/10 01:11:12;;;;;;;;;;;;;;;;;;2011790;29;19912;-75
2023/06/10 01:12:32;;;;;;;;;;;;;;;;;;2017557;29;19911;-76
2023/06/10 01:13:53;;;;;;;;;;;;;;;;;;2013852;29;19919;-75
2023/06/10 01:15:14;;;;;;;;;;;;;;;;;;2017132;29;19915;-75
2023/06/10 01:16:36;;;;;;;;;;;;;;;;;;2016579;29;20339;-75
2023/06/10 01:17:57;;;;;;;;;;;;;;;;;;2017787;29;19924;-75
2023/06/10 01:19:18;;;;;;;;;;;;;;;;;;2017313;29;19912;-75
2023/06/10 01:20:40;;;;;;;;;;;;;;;;;;2018072;29;20378;-75
2023/06/10 01:22:00;;;;;;;;;;;;;;;;;;2014993;29;19919;-75
2023/06/10 01:23:21;;;;;;;;;;;;;;;;;;2017455;29;19912;-75
2023/06/10 01:24:43;;;;;;;;;;;;;;;;;;2016839;29;20332;-75
2023/06/10 01:26:03;;;;;;;;;;;;;;;;;;2008971;29;19920;-75
2023/06/10 01:27:24;;;;;;;;;;;;;;;;;;2014541;29;20324;-75
2023/06/10 01:28:46;;;;;;;;;;;;;;;;;;2016730;29;19911;-75
2023/06/10 01:30:06;;;;;;;;;;;;;;;;;;2007994;29;20098;-75
2023/06/10 01:31:33;;;;;;;;;;;;;;;;;;2010020;29;19934;-75
2023/06/10 01:32:54;;;;;;;;;;;;;;;;;;2014181;29;20761;-75
2023/06/10 01:34:15;;;;;;;;;;;;;;;;;;2016385;29;19919;-75
2023/06/10 01:35:35;;;;;;;;;;;;;;;;;;2016114;29;19915;-75
2023/06/10 01:36:56;;;;;;;;;;;;;;;;;;2010248;29;19909;-75
2023/06/10 01:38:17;;;;;;;;;;;;;;;;;;2014494;29;19915;-75
2023/06/10 01:39:37;;;;;;;;;;;;;;;;;;2017244;29;19919;-75
2023/06/10 01:40:58;;;;;;;;;;;;;;;;;;2012694;29;20336;-75
2023/06/10 01:42:19;;;;;;;;;;;;;;;;;;2017553;29;20318;-75
2023/06/10 01:43:40;;;;;;;;;;;;;;;;;;2016267;29;19912;-75
2023/06/10 01:45:01;;;;;;;;;;;;;;;;;;2017208;29;19960;-75
2023/06/10 01:46:22;;;;;;;;;;;;;;;;;;2014853;29;20050;-75
2023/06/10 01:47:42;;;;;;;;;;;;;;;;;;2018733;29;19943;-75
2023/06/10 01:49:03;;;;;;;;;;;;;;;;;;2016946;29;20339;-75
2023/06/10 01:50:24;;;;;;;;;;;;;;;;;;2018046;29;19912;-75
2023/06/10 01:51:44;;;;;;;;;;;;;;;;;;2016048;29;19944;-75
2023/06/10 01:53:05;;;;;;;;;;;;;;;;;;2016236;29;19912;-75
2023/06/10 01:54:26;;;;;;;;;;;;;;;;;;2017034;29;20025;-75
2023/06/10 01:55:46;;;;;;;;;;;;;;;;;;2016906;29;19919;-76
2023/06/10 01:57:07;;;;;;;;;;;;;;;;;;2007456;29;19931;-75
2023/06/10 01:58:31;;;;;;;;;;;;;;;;;;2016041;29;19915;-75
2023/06/10 01:59:51;;;;;;;;;;;;;;;;;;2016533;29;19935;-75
2023/06/10 02:01:12;;;;;;;;;;;;;;;;;;2017800;29;19915;-75
2023/06/10 02:02:33;;;;;;;;;;;;;;;;;;2017258;29;20363;-75
2023/06/10 02:03:54;;;;;;;;;;;;;;;;;;2015342;29;19919;-75
2023/06/10 02:05:14;;;;;;;;;;;;;;;;;;2014748;29;19985;-75
2023/06/10 02:06:35;;;;;;;;;;;;;;;;;;2013505;29;19980;-76
2023/06/10 02:07:56;;;;;;;;;;;;;;;;;;2015157;29;20010;-75
2023/06/10 02:09:18;;;;;;;;;;;;;;;;;;2015663;29;19920;-75
2023/06/10 02:10:38;;;;;;;;;;;;;;;;;;2015353;29;19920;-75
2023/06/10 02:11:59;;;;;;;;;;;;;;;;;;2016447;29;20236;-75
2023/06/10 02:13:20;;;;;;;;;;;;;;;;;;2016220;29;19992;-75
2023/06/10 02:14:41;;;;;;;;;;;;;;;;;;2018019;29;19916;-75
2023/06/10 02:16:02;;;;;;;;;;;;;;;;;;2016122;29;19919;-75
2023/06/10 02:17:23;;;;;;;;;;;;;;;;;;2013763;29;19927;-75
2023/06/10 02:18:44;;;;;;;;;;;;;;;;;;2015685;29;19977;-75
2023/06/10 02:20:06;;;;;;;;;;;;;;;;;;2016218;29;20636;-75
2023/06/10 02:21:27;;;;;;;;;;;;;;;;;;2014904;29;20317;-75
2023/06/10 02:22:48;;;;;;;;;;;;;;;;;;2013850;29;20283;-75
2023/06/10 02:24:08;;;;;;;;;;;;;;;;;;2008433;29;19920;-75
2023/06/10 02:25:29;;;;;;;;;;;;;;;;;;2011301;29;19927;-75
2023/06/10 02:26:51;;;;;;;;;;;;;;;;;;2015412;29;19981;-75
2023/06/10 02:28:12;;;;;;;;;;;;;;;;;;2016125;29;19912;-75
2023/06/10 02:29:32;;;;;;;;;;;;;;;;;;2015725;29;19935;-75
2023/06/10 02:30:53;;;;;;;;;;;;;;;;;;2014077;29;19919;-75
2023/06/10 02:32:14;;;;;;;;;;;;;;;;;;2016557;29;19912;-75
2023/06/10 02:33:35;;;;;;;;;;;;;;;;;;2009755;29;20321;-75
2023/06/10 02:34:55;;;;;;;;;;;;;;;;;;2015042;29;19934;-75
2023/06/10 02:36:16;;;;;;;;;;;;;;;;;;2017347;29;19998;-75
2023/06/10 02:37:37;;;;;;;;;;;;;;;;;;2008619;29;19928;-75
2023/06/10 02:38:57;;;;;;;;;;;;;;;;;;2013889;29;20240;-75
2023/06/10 02:40:18;;;;;;;;;;;;;;;;;;2009686;29;19976;-75
2023/06/10 02:41:39;;;;;;;;;;;;;;;;;;2014148;29;19919;-75
2023/06/10 02:43:00;;;;;;;;;;;;;;;;;;2010544;29;20432;-75
2023/06/10 02:44:23;;;;;;;;;;;;;;;;;;2014779;29;20271;-75
2023/06/10 02:45:44;;;;;;;;;;;;;;;;;;2017988;29;19915;-75
2023/06/10 02:47:05;;;;;;;;;;;;;;;;;;2016532;29;21045;-75
2023/06/10 02:48:26;;;;;;;;;;;;;;;;;;2017685;29;19912;-75
2023/06/10 02:49:47;;;;;;;;;;;;;;;;;;2018955;29;19911;-75
2023/06/10 02:51:07;;;;;;;;;;;;;;;;;;2019904;29;19919;-70
2023/06/10 02:52:28;;;;;;;;;;;;;;;;;;2020097;29;20454;-70
2023/06/10 02:53:49;;;;;;;;;;;;;;;;;;2020656;29;19920;-70
2023/06/10 02:55:10;;;;;;;;;;;;;;;;;;2018565;29;19927;-70
2023/06/10 02:56:31;;;;;;;;;;;;;;;;;;2015827;29;20301;-70
2023/06/10 02:57:53;;;;;;;;;;;;;;;;;;2015888;29;19995;-70
2023/06/10 02:59:14;;;;;;;;;;;;;;;;;;2018356;29;19912;-70
2023/06/10 03:00:36;;;;;;;;;;;;;;;;;;2016712;29;19960;-70
2023/06/10 03:01:57;;;;;;;;;;;;;;;;;;2019695;29;19923;-70
2023/06/10 03:03:18;;;;;;;;;;;;;;;;;;2016964;29;19938;-70
2023/06/10 03:04:39;;;;;;;;;;;;;;;;;;2017470;29;19915;-70
2023/06/10 03:05:59;;;;;;;;;;;;;;;;;;2018048;29;19923;-70
2023/06/10 03:07:20;;;;;;;;;;;;;;;;;;2016346;29;19927;-70
2023/06/10 03:08:41;;;;;;;;;;;;;;;;;;2018274;29;19930;-70
2023/06/10 03:10:01;;;;;;;;;;;;;;;;;;2016973;29;19926;-71
2023/06/10 03:11:22;;;;;;;;;;;;;;;;;;2017058;29;20369;-70
2023/06/10 03:12:43;;;;;;;;;;;;;;;;;;2015221;29;19919;-70
2023/06/10 03:14:04;;;;;;;;;;;;;;;;;;2018660;29;19964;-70
2023/06/10 03:15:25;;;;;;;;;;;;;;;;;;2017550;29;19926;-70
2023/06/10 03:16:46;;;;;;;;;;;;;;;;;;2016961;29;20164;-70
2023/06/10 03:18:07;;;;;;;;;;;;;;;;;;2018834;29;19916;-70
2023/06/10 03:19:28;;;;;;;;;;;;;;;;;;2018718;29;19920;-70
2023/06/10 03:20:49;;;;;;;;;;;;;;;;;;2017254;29;19956;-70
2023/06/10 03:22:10;;;;;;;;;;;;;;;;;;2017925;29;19916;-70
2023/06/10 03:23:30;;;;;;;;;;;;;;;;;;2016748;29;19915;-70
2023/06/10 03:24:51;;;;;;;;;;;;;;;;;;2017687;29;19911;-70
2023/06/10 03:26:14;;;;;;;;;;;;;;;;;;2019406;29;20179;-70
2023/06/10 03:27:35;;;;;;;;;;;;;;;;;;2014764;29;19927;-70
2023/06/10 03:28:56;;;;;;;;;;;;;;;;;;2018193;29;20224;-70
2023/06/10 03:30:17;;;;;;;;;;;;;;;;;;2017086;29;19911;-70
2023/06/10 03:31:38;;;;;;;;;;;;;;;;;;2019146;29;19919;-70
2023/06/10 03:32:59;;;;;;;;;;;;;;;;;;2016659;29;19951;-70
2023/06/10 03:34:20;;;;;;;;;;;;;;;;;;2008801;29;19912;-71
2023/06/10 03:35:40;;;;;;;;;;;;;;;;;;2013604;29;19923;-70
2023/06/10 03:37:01;;;;;;;;;;;;;;;;;;2016425;29;19983;-70
2023/06/10 03:38:22;;;;;;;;;;;;;;;;;;2016477;29;20240;-70
2023/06/10 03:39:42;;;;;;;;;;;;;;;;;;2019010;29;19919;-70
2023/06/10 03:41:03;;;;;;;;;;;;;;;;;;2018944;29;19912;-70
2023/06/10 03:42:24;;;;;;;;;;;;;;;;;;2016955;29;19912;-70
2023/06/10 03:43:44;;;;;;;;;;;;;;;;;;2013921;29;20327;-70
2023/06/10 03:45:05;;;;;;;;;;;;;;;;;;2016741;29;19920;-71
2023/06/10 03:46:26;;;;;;;;;;;;;;;;;;2018827;29;19912;-70
2023/06/10 03:47:47;;;;;;;;;;;;;;;;;;2014955;29;19920;-70
2023/06/10 03:49:09;;;;;;;;;;;;;;;;;;2017025;29;20439;-70
2023/06/10 03:50:29;;;;;;;;;;;;;;;;;;2018398;29;19912;-70
2023/06/10 03:51:50;;;;;;;;;;;;;;;;;;2017221;29;20403;-70
2023/06/10 03:53:11;;;;;;;;;;;;;;;;;;2019043;29;19919;-70
2023/06/10 03:54:34;;;;;;;;;;;;;;;;;;2017397;29;19930;-70
2023/06/10 03:55:55;;;;;;;;;;;;;;;;;;2012873;29;19916;-70
2023/06/10 03:57:16;;;;;;;;;;;;;;;;;;2015961;29;19920;-70
2023/06/10 03:58:36;;;;;;;;;;;;;;;;;;2015880;29;19916;-70
2023/06/10 03:59:57;;;;;;;;;;;;;;;;;;2017024;29;19912;-70
2023/06/10 04:01:20;;;;;;;;;;;;;;;;;;2016716;29;19934;-70
2023/06/10 04:02:45;;;;;;;;;;;;;;;;;;2016226;29;19919;-70
2023/06/10 04:04:06;;;;;;;;;;;;;;;;;;2019053;29;19919;-70
2023/06/10 04:05:28;;;;;;;;;;;;;;;;;;2015239;29;19927;-70
2023/06/10 04:06:49;;;;;;;;;;;;;;;;;;2018200;29;19999;-70
2023/06/10 04:08:10;;;;;;;;;;;;;;;;;;2017406;29;19971;-70
2023/06/10 04:09:31;;;;;;;;;;;;;;;;;;2009668;29;19912;-70
2023/06/10 04:10:52;;;;;;;;;;;;;;;;;;2013853;29;20346;-70
2023/06/10 04:12:14;;;;;;;;;;;;;;;;;;2016620;29;19912;-70
2023/06/10 04:13:34;;;;;;;;;;;;;;;;;;2016804;29;19927;-70
2023/06/10 04:14:55;;;;;;;;;;;;;;;;;;2018589;29;20317;-70
2023/06/10 04:16:16;;;;;;;;;;;;;;;;;;2015289;29;20303;-70
2023/06/10 04:17:36;;;;;;;;;;;;;;;;;;2011430;29;19920;-70
2023/06/10 04:18:57;;;;;;;;;;;;;;;;;;2014826;29;19919;-70
2023/06/10 04:20:18;;;;;;;;;;;;;;;;;;2009771;29;19912;-70
2023/06/10 04:21:38;;;;;;;;;;;;;;;;;;2013155;29;19919;-70
2023/06/10 04:22:59;;;;;;;;;;;;;;;;;;2013297;29;20228;-70
2023/06/10 04:24:20;;;;;;;;;;;;;;;;;;2018071;29;19911;-71
2023/06/10 04:25:41;;;;;;;;;;;;;;;;;;2003037;29;19946;-70
2023/06/10 04:27:02;;;;;;;;;;;;;;;;;;2008497;29;19911;-70
2023/06/10 04:28:22;;;;;;;;;;;;;;;;;;2008531;29;19924;-70
2023/06/10 04:29:43;;;;;;;;;;;;;;;;;;2013125;29;19912;-70
2023/06/10 04:31:04;;;;;;;;;;;;;;;;;;2015246;29;19971;-70
2023/06/10 04:32:26;;;;;;;;;;;;;;;;;;2018180;29;19911;-70
2023/06/10 04:33:47;;;;;;;;;;;;;;;;;;2014778;29;20079;-70
2023/06/10 04:35:07;;;;;;;;;;;;;;;;;;2017028;29;20259;-70
2023/06/10 04:36:29;;;;;;;;;;;;;;;;;;2015974;29;19919;-70
2023/06/10 04:37:50;;;;;;;;;;;;;;;;;;2016720;29;19951;-70
2023/06/10 04:39:11;;;;;;;;;;;;;;;;;;2016962;29;19912;-71
2023/06/10 04:40:32;;;;;;;;;;;;;;;;;;2015727;29;19923;-71
2023/06/10 04:41:52;;;;;;;;;;;;;;;;;;2014980;29;19912;-70
2023/06/10 04:43:13;;;;;;;;;;;;;;;;;;2017671;29;20328;-70
2023/06/10 04:44:34;;;;;;;;;;;;;;;;;;2016149;29;19950;-70
2023/06/10 04:45:54;;;;;;;;;;;;;;;;;;2011708;29;19931;-70
2023/06/10 04:47:17;;;;;;;;;;;;;;;;;;2017335;29;19916;-70
2023/06/10 04:48:37;;;;;;;;;;;;;;;;;;2016152;29;19916;-70
2023/06/10 04:49:58;;;;;;;;;;;;;;;;;;2015614;29;19919;-70
2023/06/10 04:51:19;;;;;;;;;;;;;;;;;;2006751;29;19916;-71
2023/06/10 04:52:41;;;;;;;;;;;;;;;;;;2013511;29;19915;-71
2023/06/10 04:54:03;;;;;;;;;;;;;;;;;;2018053;29;20056;-70
2023/06/10 04:55:24;;;;;;;;;;;;;;;;;;2015912;29;21577;-70
2023/06/10 04:56:45;;;;;;;;;;;;;;;;;;2017435;29;19960;-70
2023/06/10 04:58:05;;;;;;;;;;;;;;;;;;2013061;29;19939;-70
2023/06/10 04:59:26;;;;;;;;;;;;;;;;;;2016545;29;19912;-70
2023/06/10 05:00:47;;;;;;;;;;;;;;;;;;2005344;29;19924;-70
2023/06/10 05:02:07;;;;;;;;;;;;;;;;;;2014160;29;19911;-70
2023/06/10 05:03:28;;;;;;;;;;;;;;;;;;2015073;29;19959;-70
2023/06/10 05:04:49;;;;;;;;;;;;;;;;;;2015905;29;20292;-70
2023/06/10 05:06:09;;;;;;;;;;;;;;;;;;2015057;29;20048;-70
2023/06/10 05:07:30;;;;;;;;;;;;;;;;;;2014479;29;19999;-70
2023/06/10 05:08:51;;;;;;;;;;;;;;;;;;2005503;29;19919;-71
2023/06/10 05:10:12;;;;;;;;;;;;;;;;;;2012199;29;19975;-70
2023/06/10 05:11:32;;;;;;;;;;;;;;;;;;2016880;29;19915;-70
2023/06/10 05:12:53;;;;;;;;;;;;;;;;;;2017998;29;19912;-70
2023/06/10 05:14:16;;;;;;;;;;;;;;;;;;2017367;29;19912;-70
2023/06/10 05:15:37;;;;;;;;;;;;;;;;;;2018286;29;19920;-70
2023/06/10 05:16:58;;;;;;;;;;;;;;;;;;2017689;29;19920;-70
2023/06/10 05:18:18;;;;;;;;;;;;;;;;;;2014143;29;19927;-70
2023/06/10 05:19:39;;;;;;;;;;;;;;;;;;2016488;29;19916;-71
2023/06/10 05:21:00;;;;;;;;;;;;;;;;;;2017470;29;20304;-70
2023/06/10 05:22:20;;;;;;;;;;;;;;;;;;2016389;29;20304;-71
2023/06/10 05:23:41;;;;;;;;;;;;;;;;;;2015501;29;19912;-70
2023/06/10 05:25:02;;;;;;;;;;;;;;;;;;2011734;29;19967;-70
2023/06/10 05:26:23;;;;;;;;;;;;;;;;;;2007166;29;20214;-70
2023/06/10 05:27:44;;;;;;;;;;;;;;;;;;2014203;29;19929;-70
2023/06/10 05:29:04;;;;;;;;;;;;;;;;;;2017443;29;19926;-70
2023/06/10 05:30:26;;;;;;;;;;;;;;;;;;2011781;29;19911;-71
2023/06/10 05:31:47;;;;;;;;;;;;;;;;;;2016926;29;19982;-70
2023/06/10 05:33:07;;;;;;;;;;;;;;;;;;2016581;29;19912;-70
2023/06/10 05:34:28;;;;;;;;;;;;;;;;;;2017653;29;20390;-70
2023/06/10 05:35:49;;;;;;;;;;;;;;;;;;2014665;29;19937;-70
2023/06/10 05:37:09;;;;;;;;;;;;;;;;;;2015153;29;19976;-70
2023/06/10 05:38:30;;;;;;;;;;;;;;;;;;2014077;29;19919;-70
2023/06/10 05:39:51;;;;;;;;;;;;;;;;;;2016534;29;20331;-70
2023/06/10 05:41:11;;;;;;;;;;;;;;;;;;2016872;29;19919;-70
2023/06/10 05:42:32;;;;;;;;;;;;;;;;;;2015652;29;19940;-70
2023/06/10 05:43:53;;;;;;;;;;;;;;;;;;2016081;29;20328;-70
2023/06/10 05:45:13;;;;;;;;;;;;;;;;;;2016626;29;19920;-70
2023/06/10 05:46:34;;;;;;;;;;;;;;;;;;2016148;29;20315;-70
2023/06/10 05:47:55;;;;;;;;;;;;;;;;;;2015762;29;19991;-70
2023/06/10 05:49:16;;;;;;;;;;;;;;;;;;2016728;29;19918;-70
2023/06/10 05:50:38;;;;;;;;;;;;;;;;;;2016489;29;19923;-70
2023/06/10 05:51:59;;;;;;;;;;;;;;;;;;2015764;29;20051;-70
2023/06/10 05:53:20;;;;;;;;;;;;;;;;;;2017414;29;19912;-71
2023/06/10 05:54:40;;;;;;;;;;;;;;;;;;2015524;29;19911;-70
2023/06/10 05:56:01;;;;;;;;;;;;;;;;;;2014140;29;20360;-70
2023/06/10 05:57:22;;;;;;;;;;;;;;;;;;2015100;29;19912;-71
2023/06/10 05:58:42;;;;;;;;;;;;;;;;;;2016648;29;19907;-70
2023/06/10 06:00:04;;;;;;;;;;;;;;;;;;2007866;29;20365;-70
2023/06/10 06:01:25;;;;;;;;;;;;;;;;;;2014045;29;19912;-70
2023/06/10 06:02:45;;;;;;;;;;;;;;;;;;2016564;29;20398;-70
2023/06/10 06:04:06;;;;;;;;;;;;;;;;;;2017188;29;20299;-70
2023/06/10 06:05:27;;;;;;;;;;;;;;;;;;2017014;29;19920;-70
2023/06/10 06:06:47;;;;;;;;;;;;;;;;;;2017535;29;19915;-70
2023/06/10 06:08:08;;;;;;;;;;;;;;;;;;2015111;29;20410;-71
2023/06/10 06:09:29;;;;;;;;;;;;;;;;;;2016387;29;20203;-70
2023/06/10 06:10:49;;;;;;;;;;;;;;;;;;2014293;29;19916;-70
2023/06/10 06:12:10;;;;;;;;;;;;;;;;;;2007405;29;19916;-70
2023/06/10 06:13:31;;;;;;;;;;;;;;;;;;2013326;29;19912;-70
2023/06/10 06:14:52;;;;;;;;;;;;;;;;;;2018208;29;19954;-70
2023/06/10 06:16:12;;;;;;;;;;;;;;;;;;2017028;29;20184;-70
2023/06/10 06:17:33;;;;;;;;;;;;;;;;;;2015163;29;19920;-70
2023/06/10 06:18:54;;;;;;;;;;;;;;;;;;2015965;29;19911;-70
2023/06/10 06:20:15;;;;;;;;;;;;;;;;;;2015667;29;20079;-70
2023/06/10 06:21:35;;;;;;;;;;;;;;;;;;2006561;29;20321;-70
2023/06/10 06:22:56;;;;;;;;;;;;;;;;;;2010168;29;19920;-70
2023/06/10 06:24:17;;;;;;;;;;;;;;;;;;2014877;29;19919;-70
2023/06/10 06:25:38;;;;;;;;;;;;;;;;;;2014603;29;19975;-70
2023/06/10 06:26:59;;;;;;;;;;;;;;;;;;2015867;29;20309;-70
2023/06/10 06:28:21;;;;;;;;;;;;;;;;;;2017540;29;20463;-70
2023/06/10 06:29:42;;;;;;;;;;;;;;;;;;2015693;29;19912;-70
2023/06/10 06:31:03;;;;;;;;;;;;;;;;;;2004431;29;20023;-70
2023/06/10 06:32:26;;;;;;;;;;;;;;;;;;2010072;29;19919;-70
2023/06/10 06:33:46;;;;;;;;;;;;;;;;;;2014163;29;19920;-70
2023/06/10 06:35:07;;;;;;;;;;;;;;;;;;2015246;29;19919;-70
2023/06/10 06:36:28;;;;;;;;;;;;;;;;;;2015178;29;19980;-70
2023/06/10 06:37:49;;;;;;;;;;;;;;;;;;2004929;29;19931;-69
2023/06/10 06:39:10;;;;;;;;;;;;;;;;;;2013062;29;20324;-70
2023/06/10 06:40:30;;;;;;;;;;;;;;;;;;2007159;29;19912;-71
2023/06/10 06:41:51;;;;;;;;;;;;;;;;;;2012516;29;20290;-70
2023/06/10 06:43:12;;;;;;;;;;;;;;;;;;2013410;29;20003;-70
2023/06/10 06:44:32;;;;;;;;;;;;;;;;;;2011458;29;20550;-70
2023/06/10 06:45:53;;;;;;;;;;;;;;;;;;2008534;29;19919;-70
2023/06/10 06:47:14;;;;;;;;;;;;;;;;;;2013254;29;19920;-71
2023/06/10 06:48:34;;;;;;;;;;;;;;;;;;2009964;29;19920;-70
2023/06/10 06:49:55;;;;;;;;;;;;;;;;;;2008453;29;19920;-70
2023/06/10 06:51:16;;;;;;;;;;;;;;;;;;2011415;29;20363;-70
2023/06/10 06:52:37;;;;;;;;;;;;;;;;;;2010407;29;19933;-70
2023/06/10 06:53:58;;;;;;;;;;;;;;;;;;2004908;29;19957;-70
2023/06/10 06:55:19;;;;;;;;;;;;;;;;;;2013663;29;19979;-70
2023/06/10 06:56:40;;;;;;;;;;;;;;;;;;2014479;29;19912;-68
2023/06/10 06:58:03;;;;;;;;;;;;;;;;;;2013454;29;19912;-68
2023/06/10 06:59:25;;;;;;;;;;;;;;;;;;2016337;29;19908;-70
2023/06/10 07:00:46;;;;;;;;;;;;;;;;;;2016074;29;19919;-70
2023/06/10 07:02:06;;;;;;;;;;;;;;;;;;2013717;29;19908;-70
2023/06/10 07:03:27;;;;;;;;;;;;;;;;;;2010670;29;19916;-71
2023/06/10 07:04:49;;;;;;;;;;;;;;;;;;2015207;29;19922;-71
2023/06/10 07:06:10;;;;;;;;;;;;;;;;;;2011828;29;19919;-71
2023/06/10 07:07:30;;;;;;;;;;;;;;;;;;2014670;29;19912;-72
2023/06/10 07:08:51;;;;;;;;;;;;;;;;;;2013799;29;19915;-70
2023/06/10 07:10:12;;;;;;;;;;;;;;;;;;2013561;29;19919;-70
2023/06/10 07:11:32;;;;;;;;;;;;;;;;;;2014243;29;19936;-71
2023/06/10 07:12:53;;;;;;;;;;;;;;;;;;2008684;29;20360;-70
2023/06/10 07:14:14;;;;;;;;;;;;;;;;;;2012871;29;19916;-70
2023/06/10 07:15:34;;;;;;;;;;;;;;;;;;2008895;29;20299;-70
2023/06/10 07:16:55;;;;;;;;;;;;;;;;;;2013465;29;19991;-70
2023/06/10 07:18:17;;;;;;;;;;;;;;;;;;2016818;29;19920;-70
2023/06/10 07:19:37;;;;;;;;;;;;;;;;;;2015823;29;19919;-70
2023/06/10 07:20:58;;;;;;;;;;;;;;;;;;2017631;29;19911;-70
2023/06/10 07:22:19;;;;;;;;;;;;;;;;;;2017393;29;20423;-70
2023/06/10 07:23:40;;;;;;;;;;;;;;;;;;2016104;29;19929;-70
2023/06/10 07:25:00;;;;;;;;;;;;;;;;;;2017259;29;19915;-70
2023/06/10 07:26:21;;;;;;;;;;;;;;;;;;2015199;29;20267;-70
2023/06/10 07:27:42;;;;;;;;;;;;;;;;;;2007248;29;20045;-70
2023/06/10 07:29:03;;;;;;;;;;;;;;;;;;2010619;29;19919;-70
2023/06/10 07:30:23;;;;;;;;;;;;;;;;;;2016123;29;19919;-70
2023/06/10 07:31:44;;;;;;;;;;;;;;;;;;2019719;29;19964;-70
2023/06/10 07:33:07;;;;;;;;;;;;;;;;;;2017545;29;20302;-70
2023/06/10 07:34:28;;;;;;;;;;;;;;;;;;2014352;29;19920;-70
2023/06/10 07:35:48;;;;;;;;;;;;;;;;;;2013769;29;19911;-70
2023/06/10 07:37:09;;;;;;;;;;;;;;;;;;2009100;29;19916;-70
2023/06/10 07:38:30;;;;;;;;;;;;;;;;;;2012396;29;19967;-70
2023/06/10 07:39:50;;;;;;;;;;;;;;;;;;2015245;29;19911;-70
2023/06/10 07:41:11;;;;;;;;;;;;;;;;;;2018219;29;19919;-70
2023/06/10 07:42:32;;;;;;;;;;;;;;;;;;2014113;29;19912;-71
2023/06/10 07:43:54;;;;;;;;;;;;;;;;;;2017895;29;19919;-70
2023/06/10 07:45:15;;;;;;;;;;;;;;;;;;2015580;29;20075;-70
2023/06/10 07:46:35;;;;;;;;;;;;;;;;;;2010373;29;19972;-70
2023/06/10 07:47:56;;;;;;;;;;;;;;;;;;2014890;29;19912;-70
2023/06/10 07:49:17;;;;;;;;;;;;;;;;;;2017073;29;19907;-71
2023/06/10 07:50:37;;;;;;;;;;;;;;;;;;2017649;29;19908;-70
2023/06/10 07:51:58;;;;;;;;;;;;;;;;;;2011321;29;19919;-70
2023/06/10 07:53:19;;;;;;;;;;;;;;;;;;2011334;29;20360;-71
2023/06/10 07:54:39;;;;;;;;;;;;;;;;;;2009830;29;19912;-70
2023/06/10 07:56:00;;;;;;;;;;;;;;;;;;2016497;29;20423;-70
2023/06/10 07:57:21;;;;;;;;;;;;;;;;;;2017690;29;19915;-70
2023/06/10 07:58:42;;;;;;;;;;;;;;;;;;2016484;29;19916;-70
2023/06/10 08:00:04;;;;;;;;;;;;;;;;;;2018681;29;19919;-71
2023/06/10 08:01:24;;;;;;;;;;;;;;;;;;2016026;29;19922;-70
2023/06/10 08:02:45;;;;;;;;;;;;;;;;;;2011283;29;19915;-70
2023/06/10 08:04:06;;;;;;;;;;;;;;;;;;2003453;29;19920;-70
2023/06/10 08:05:27;;;;;;;;;;;;;;;;;;2006132;29;20313;-71
2023/06/10 08:06:47;;;;;;;;;;;;;;;;;;2004712;29;19912;-70
2023/06/10 08:08:08;;;;;;;;;;;;;;;;;;2008537;29;20229;-70
2023/06/10 08:09:29;;;;;;;;;;;;;;;;;;2004258;29;19951;-71
2023/06/10 08:10:49;;;;;;;;;;;;;;;;;;2003267;29;19913;-70
2023/06/10 08:12:10;;;;;;;;;;;;;;;;;;2003169;29;19925;-71
2023/06/10 08:13:31;;;;;;;;;;;;;;;;;;2003931;29;19981;-70
2023/06/10 08:14:51;;;;;;;;;;;;;;;;;;2003700;29;19920;-71
2023/06/10 08:16:12;;;;;;;;;;;;;;;;;;2002310;29;19908;-71
2023/06/10 08:17:33;;;;;;;;;;;;;;;;;;2006365;29;19916;-70
2023/06/10 08:18:53;;;;;;;;;;;;;;;;;;2007423;29;19935;-71
2023/06/10 08:20:14;;;;;;;;;;;;;;;;;;2011120;29;19908;-71
2023/06/10 08:21:36;;;;;;;;;;;;;;;;;;2017366;29;20217;-71
2023/06/10 08:22:57;;;;;;;;;;;;;;;;;;2007534;29;19924;-71
2023/06/10 08:24:18;;;;;;;;;;;;;;;;;;2003912;29;19919;-71
2023/06/10 08:25:39;;;;;;;;;;;;;;;;;;2004363;29;19908;-71
2023/06/10 08:27:00;;;;;;;;;;;;;;;;;;2008762;29;19916;-71
2023/06/10 08:28:20;;;;;;;;;;;;;;;;;;2010167;29;20485;-69
2023/06/10 08:29:41;;;;;;;;;;;;;;;;;;2011039;29;19908;-71
2023/06/10 08:31:02;;;;;;;;;;;;;;;;;;2001681;29;19912;-71
2023/06/10 08:32:22;;;;;;;;;;;;;;;;;;2006315;29;19944;-70
2023/06/10 08:33:43;;;;;;;;;;;;;;;;;;2011724;29;19908;-71
2023/06/10 08:35:04;;;;;;;;;;;;;;;;;;2008419;29;20291;-71
2023/06/10 08:36:25;;;;;;;;;;;;;;;;;;2000936;29;19912;-71
2023/06/10 08:37:45;;;;;;;;;;;;;;;;;;1999801;29;19981;-70
2023/06/10 08:39:07;;;;;;;;;;;;;;;;;;2002781;29;20284;-71
2023/06/10 08:40:27;;;;;;;;;;;;;;;;;;2002393;29;20403;-71
2023/06/10 08:41:48;;;;;;;;;;;;;;;;;;2010096;29;20288;-71
2023/06/10 08:43:09;;;;;;;;;;;;;;;;;;2008779;29;19908;-73
2023/06/10 08:44:30;;;;;;;;;;;;;;;;;;2010409;29;19908;-71
2023/06/10 08:45:50;;;;;;;;;;;;;;;;;;2002419;29;20312;-73
2023/06/10 08:47:11;;;;;;;;;;;;;;;;;;2006537;29;19912;-74
2023/06/10 08:48:32;;;;;;;;;;;;;;;;;;2015891;29;19938;-74
2023/06/10 08:49:53;;;;;;;;;;;;;;;;;;2013304;29;19908;-74
2023/06/10 08:51:14;;;;;;;;;;;;;;;;;;2001955;29;19913;-74
2023/06/10 08:52:34;;;;;;;;;;;;;;;;;;2002524;29;19924;-73
2023/06/10 08:53:55;;;;;;;;;;;;;;;;;;2000894;29;20253;-74
2023/06/10 08:55:17;;;;;;;;;;;;;;;;;;2010856;29;19908;-74
2023/06/10 08:56:38;;;;;;;;;;;;;;;;;;2010992;29;19915;-74
2023/06/10 08:57:59;;;;;;;;;;;;;;;;;;2010029;29;19912;-74
2023/06/10 08:59:19;;;;;;;;;;;;;;;;;;2010613;29;20266;-74
2023/06/10 09:00:40;;;;;;;;;;;;;;;;;;2010221;29;19920;-73
2023/06/10 09:02:01;;;;;;;;;;;;;;;;;;2008942;29;20307;-73
2023/06/10 09:03:21;;;;;;;;;;;;;;;;;;2013558;29;20063;-74
2023/06/10 09:04:42;;;;;;;;;;;;;;;;;;2016395;29;19918;-74
2023/06/10 09:06:03;;;;;;;;;;;;;;;;;;2017813;29;19918;-73
2023/06/10 09:07:24;;;;;;;;;;;;;;;;;;2016755;29;20272;-73
2023/06/10 09:08:45;;;;;;;;;;;;;;;;;;2017118;29;20331;-74
2023/06/10 09:10:07;;;;;;;;;;;;;;;;;;2015305;29;19959;-73
2023/06/10 09:11:27;;;;;;;;;;;;;;;;;;2008950;29;19912;-70
2023/06/10 09:12:48;;;;;;;;;;;;;;;;;;2009420;29;20383;-70
2023/06/10 09:14:09;;;;;;;;;;;;;;;;;;2015131;29;19934;-70
2023/06/10 09:15:29;;;;;;;;;;;;;;;;;;2012894;29;19975;-70
2023/06/10 09:16:51;;;;;;;;;;;;;;;;;;2008437;29;19912;-72
2023/06/10 09:18:11;;;;;;;;;;;;;;;;;;2013712;29;19911;-73
2023/06/10 09:19:32;;;;;;;;;;;;;;;;;;2017151;29;19989;-72
2023/06/10 09:20:53;;;;;;;;;;;;;;;;;;2015549;29;19930;-72
2023/06/10 09:22:13;;;;;;;;;;;;;;;;;;2023808;29;19908;-72
2023/06/10 09:23:34;;;;;;;;;;;;;;;;;;2020201;29;19912;-72
2023/06/10 09:24:55;;;;;;;;;;;;;;;;;;2018320;29;19922;-71
2023/06/10 09:26:15;;;;;;;;;;;;;;;;;;2020012;29;19907;-71
2023/06/10 09:27:36;;;;;;;;;;;;;;;;;;2017763;29;19992;-71
2023/06/10 09:28:57;;;;;;;;;;;;;;;;;;2016086;29;19927;-71
2023/06/10 09:30:17;;;;;;;;;;;;;;;;;;2017673;29;20360;-72
2023/06/10 09:31:38;;;;;;;;;;;;;;;;;;2017331;29;19915;-72
2023/06/10 09:32:59;;;;;;;;;;;;;;;;;;2014405;29;19912;-72
2023/06/10 09:34:20;;;;;;;;;;;;;;;;;;2011983;29;20282;-71
2023/06/10 09:35:41;;;;;;;;;;;;;;;;;;2012860;29;19916;-72
2023/06/10 09:37:01;;;;;;;;;;;;;;;;;;2016384;29;20344;-72
2023/06/10 09:38:22;;;;;;;;;;;;;;;;;;2007737;29;19920;-73
2023/06/10 09:39:43;;;;;;;;;;;;;;;;;;2014358;29;19915;-71
2023/06/10 09:41:04;;;;;;;;;;;;;;;;;;2001789;29;19988;-72
2023/06/10 09:42:24;;;;;;;;;;;;;;;;;;2012696;29;19908;-72
2023/06/10 09:43:46;;;;;;;;;;;;;;;;;;2018230;29;20320;-72
2023/06/10 09:45:07;;;;;;;;;;;;;;;;;;2017794;29;20317;-72
2023/06/10 09:46:31;;;;;;;;;;;;;;;;;;2017612;29;19938;-73
2023/06/10 09:47:52;;;;;;;;;;;;;;;;;;2012063;29;19920;-72
2023/06/10 09:49:13;;;;;;;;;;;;;;;;;;2015423;29;19927;-73
2023/06/10 09:50:34;;;;;;;;;;;;;;;;;;2011923;29;20364;-73
2023/06/10 09:51:55;;;;;;;;;;;;;;;;;;2008609;29;20210;-73
2023/06/10 09:53:16;;;;;;;;;;;;;;;;;;2001017;29;20341;-72
2023/06/10 09:54:36;;;;;;;;;;;;;;;;;;2006534;29;19908;-73
2023/06/10 09:55:57;;;;;;;;;;;;;;;;;;2010168;29;19919;-73
2023/06/10 09:57:18;;;;;;;;;;;;;;;;;;2012101;29;19919;-73
2023/06/10 09:58:38;;;;;;;;;;;;;;;;;;2015937;29;20367;-73
2023/06/10 09:59:59;;;;;;;;;;;;;;;;;;2014880;29;20324;-73
2023/06/10 10:01:20;;;;;;;;;;;;;;;;;;2016828;29;19918;-72
2023/06/10 10:02:41;;;;;;;;;;;;;;;;;;2013677;29;19912;-73
2023/06/10 10:04:01;;;;;;;;;;;;;;;;;;2014062;29;19923;-73
2023/06/10 10:05:22;;;;;;;;;;;;;;;;;;2016014;29;19908;-72
2023/06/10 10:06:42;;;;;;;;;;;;;;;;;;2012966;29;20344;-72
2023/06/10 10:08:03;;;;;;;;;;;;;;;;;;2021427;29;19938;-71
2023/06/10 10:09:24;;;;;;;;;;;;;;;;;;2016619;29;19916;-72
2023/06/10 10:10:45;;;;;;;;;;;;;;;;;;2014635;29;19908;-73
2023/06/10 10:12:05;;;;;;;;;;;;;;;;;;2016954;29;20291;-71
2023/06/10 10:13:27;;;;;;;;;;;;;;;;;;2014470;29;20244;-71
2023/06/10 10:14:47;;;;;;;;;;;;;;;;;;2013412;29;20340;-71